createdAt,value
2023-05-18T00:00:39.109Z,18.59
2023-05-18T00:03:05.028Z,18.70
2023-05-18T00:05:39.066Z,18.78
2023-05-18T00:08:01.975Z,18.73
2023-05-18T00:10:36.746Z,18.72
2023-05-18T00:13:10.024Z,18.70
2023-05-18T00:15:38.592Z,18.68
2023-05-18T00:18:06.863Z,18.61
2023-05-18T00:20:41.400Z,18.63
2023-05-18T00:23:17.887Z,18.62
2023-05-18T00:25:51.537Z,18.56
2023-05-18T00:28:15.780Z,18.54
2023-05-18T00:30:49.418Z,18.47
2023-05-18T00:33:24.401Z,18.40
2023-05-18T00:35:58.481Z,18.31
2023-05-18T00:38:21.605Z,18.18
2023-05-18T00:40:56.041Z,18.05
2023-05-18T00:43:30.057Z,17.98
2023-05-18T00:45:57.591Z,17.87
2023-05-18T00:48:21.604Z,17.82
2023-05-18T00:50:56.763Z,17.82
2023-05-18T00:53:29.944Z,17.83
2023-05-18T00:56:03.409Z,17.87
2023-05-18T00:58:30.371Z,17.89
2023-05-18T01:01:04.507Z,17.86
2023-05-18T01:03:40.295Z,17.90
2023-05-18T01:06:07.043Z,17.97
2023-05-18T01:08:31.434Z,18.02
2023-05-18T01:10:54.529Z,18.00
2023-05-18T01:13:24.921Z,17.98
2023-05-18T01:16:05.176Z,17.98
2023-05-18T01:18:48.125Z,18.02
2023-05-18T01:21:23.181Z,18.10
2023-05-18T01:24:18.602Z,18.05
2023-05-18T01:27:01.776Z,18.01
2023-05-18T01:29:46.369Z,17.94
2023-05-18T01:32:21.176Z,17.87
2023-05-18T01:34:43.867Z,17.78
2023-05-18T01:37:17.233Z,17.70
2023-05-18T01:39:39.872Z,17.71
2023-05-18T01:42:18.869Z,17.69
2023-05-18T01:44:56.973Z,17.60
2023-05-18T01:47:21.834Z,17.61
2023-05-18T01:50:02.884Z,17.59
2023-05-18T01:52:40.966Z,17.55
2023-05-18T01:55:18.402Z,17.49
2023-05-18T01:57:55.714Z,17.45
2023-05-18T02:00:20.373Z,17.43
2023-05-18T02:02:55.305Z,17.41
2023-05-18T02:05:30.230Z,17.36
2023-05-18T02:07:58.363Z,17.31
2023-05-18T02:10:25.672Z,17.28
2023-05-18T02:13:00.570Z,17.30
2023-05-18T02:15:35.421Z,17.31
2023-05-18T02:18:09.681Z,17.34
2023-05-18T02:20:45.626Z,17.38
2023-05-18T02:23:07.381Z,17.36
2023-05-18T02:25:43.131Z,17.38
2023-05-18T02:28:16.145Z,17.43
2023-05-18T02:30:38.511Z,17.48
2023-05-18T02:33:05.527Z,17.46
2023-05-18T02:35:39.426Z,17.42
2023-05-18T02:38:13.937Z,17.35
2023-05-18T02:40:36.665Z,17.14
2023-05-18T02:43:10.404Z,16.96
2023-05-18T02:45:44.677Z,16.86
2023-05-18T02:48:18.524Z,16.82
2023-05-18T02:50:55.128Z,16.84
2023-05-18T02:53:29.570Z,16.77
2023-05-18T02:56:05.232Z,16.72
2023-05-18T02:58:44.978Z,16.75
2023-05-18T03:01:27.986Z,16.74
2023-05-18T03:04:02.578Z,16.69
2023-05-18T03:06:37.239Z,16.64
2023-05-18T03:09:12.136Z,16.58
2023-05-18T03:11:46.339Z,16.51
2023-05-18T03:14:20.206Z,16.45
2023-05-18T03:16:59.020Z,16.38
2023-05-18T03:19:33.515Z,16.31
2023-05-18T03:22:09.083Z,16.19
2023-05-18T03:24:44.301Z,16.09
2023-05-18T03:27:19.736Z,15.99
2023-05-18T03:29:54.269Z,15.89
2023-05-18T03:32:29.704Z,15.80
2023-05-18T03:34:54.189Z,15.73
2023-05-18T03:37:27.937Z,15.68
2023-05-18T03:39:49.831Z,15.63
2023-05-18T03:42:16.802Z,15.55
2023-05-18T03:44:50.782Z,15.47
2023-05-18T03:47:25.325Z,15.41
2023-05-18T03:49:51.844Z,15.37
2023-05-18T03:52:25.315Z,15.27
2023-05-18T03:55:00.038Z,15.20
2023-05-18T03:57:28.252Z,15.16
2023-05-18T04:00:02.285Z,15.10
2023-05-18T04:02:31.720Z,15.05
2023-05-18T04:04:55.549Z,15.01
2023-05-18T04:07:30.304Z,14.98
2023-05-18T04:09:57.790Z,14.99
2023-05-18T04:12:25.228Z,14.98
2023-05-18T04:14:59.441Z,14.97
2023-05-18T04:17:26.358Z,14.93
2023-05-18T04:19:53.689Z,14.91
2023-05-18T04:22:30.994Z,14.88
2023-05-18T04:25:06.345Z,14.88
2023-05-18T04:27:39.461Z,14.88
2023-05-18T04:30:19.871Z,14.89
2023-05-18T04:32:55.761Z,14.91
2023-05-18T04:35:30.682Z,14.92
2023-05-18T04:38:06.430Z,14.93
2023-05-18T04:40:39.363Z,14.92
2023-05-18T04:43:14.680Z,14.91
2023-05-18T04:45:48.715Z,14.89
2023-05-18T04:48:11.963Z,14.86
2023-05-18T04:50:38.395Z,14.83
2023-05-18T04:53:13.411Z,14.78
2023-05-18T04:55:48.182Z,14.77
2023-05-18T04:58:22.754Z,14.79
2023-05-18T05:00:57.702Z,14.80
2023-05-18T05:03:32.592Z,14.81
2023-05-18T05:05:55.052Z,14.82
2023-05-18T05:08:22.238Z,14.85
2023-05-18T05:11:46.558Z,14.87
2023-05-18T05:13:53.031Z,14.85
2023-05-18T05:16:27.656Z,14.81
2023-05-18T05:18:55.161Z,14.79
2023-05-18T05:21:29.643Z,14.78
2023-05-18T05:24:06.221Z,14.78
2023-05-18T05:26:29.824Z,14.81
2023-05-18T05:29:04.545Z,14.83
2023-05-18T05:31:31.273Z,14.83
2023-05-18T05:33:57.704Z,14.83
2023-05-18T05:36:31.158Z,14.84
2023-05-18T05:38:53.818Z,14.85
2023-05-18T05:41:28.341Z,14.87
2023-05-18T05:44:02.033Z,14.91
2023-05-18T05:46:35.806Z,14.90
2023-05-18T05:49:11.134Z,14.91
2023-05-18T05:51:45.167Z,14.89
2023-05-18T05:54:20.029Z,14.90
2023-05-18T05:56:55.637Z,14.90
2023-05-18T05:59:30.282Z,14.92
2023-05-18T06:01:57.244Z,14.94
2023-05-18T06:04:20.018Z,14.96
2023-05-18T06:06:54.402Z,14.94
2023-05-18T06:09:28.177Z,14.95
2023-05-18T06:12:02.389Z,14.96
2023-05-18T06:14:29.128Z,14.95
2023-05-18T06:16:54.268Z,14.96
2023-05-18T06:19:28.254Z,14.96
2023-05-18T06:22:04.198Z,14.93
2023-05-18T06:24:38.510Z,14.91
2023-05-18T06:27:13.326Z,14.86
2023-05-18T06:29:46.840Z,14.83
2023-05-18T06:32:21.642Z,14.83
2023-05-18T06:34:52.778Z,14.85
2023-05-18T06:37:15.983Z,14.83
2023-05-18T06:39:43.196Z,14.84
2023-05-18T06:42:17.996Z,14.83
2023-05-18T06:44:55.372Z,14.79
2023-05-18T06:47:29.378Z,14.76
2023-05-18T06:49:56.674Z,14.75
2023-05-18T06:52:31.073Z,14.73
2023-05-18T06:54:54.369Z,14.73
2023-05-18T06:57:19.511Z,14.72
2023-05-18T06:59:54.933Z,14.71
2023-05-18T07:02:23.438Z,14.68
2023-05-18T07:04:50.261Z,14.64
2023-05-18T07:07:23.974Z,14.63
2023-05-18T07:10:00.188Z,14.62
2023-05-18T07:12:36.330Z,14.62
2023-05-18T07:15:12.917Z,14.60
2023-05-18T07:17:46.227Z,14.59
2023-05-18T07:20:15.182Z,14.58
2023-05-18T07:22:41.751Z,14.54
2023-05-18T07:25:16.621Z,14.52
2023-05-18T07:27:50.220Z,14.52
2023-05-18T07:30:24.989Z,14.53
2023-05-18T07:32:52.558Z,14.53
2023-05-18T07:35:27.619Z,14.52
2023-05-18T07:38:01.681Z,14.53
2023-05-18T07:40:35.917Z,14.54
2023-05-18T07:43:09.141Z,14.55
2023-05-18T07:45:43.039Z,14.55
2023-05-18T07:48:17.180Z,14.61
2023-05-18T07:50:51.760Z,14.61
2023-05-18T07:53:25.567Z,14.61
2023-05-18T07:56:01.391Z,14.60
2023-05-18T07:58:36.458Z,14.57
2023-05-18T08:01:10.781Z,14.58
2023-05-18T08:03:45.675Z,14.57
2023-05-18T08:06:07.601Z,14.60
2023-05-18T08:08:40.731Z,14.64
2023-05-18T08:11:04.086Z,14.67
2023-05-18T08:13:38.509Z,14.70
2023-05-18T08:16:13.612Z,14.71
2023-05-18T08:18:48.185Z,14.70
2023-05-18T08:21:23.301Z,14.70
2023-05-18T08:23:58.075Z,14.73
2023-05-18T08:26:20.866Z,14.73
2023-05-18T08:28:54.361Z,14.74
2023-05-18T08:31:18.230Z,14.76
2023-05-18T08:33:53.239Z,14.76
2023-05-18T08:36:27.284Z,14.76
2023-05-18T08:39:01.653Z,14.75
2023-05-18T08:41:39.368Z,14.75
2023-05-18T08:44:09.891Z,14.75
2023-05-18T08:46:49.220Z,14.75
2023-05-18T08:49:23.978Z,14.75
2023-05-18T08:52:03.930Z,14.74
2023-05-18T08:54:42.972Z,14.73
2023-05-18T08:57:18.679Z,14.74
2023-05-18T08:59:52.697Z,14.76
2023-05-18T09:02:28.207Z,14.78
2023-05-18T09:05:02.655Z,14.77
2023-05-18T09:07:28.722Z,14.76
2023-05-18T09:09:52.924Z,14.77
2023-05-18T09:12:18.337Z,14.76
2023-05-18T09:14:52.863Z,14.76
2023-05-18T09:17:20.086Z,14.77
2023-05-18T09:19:53.616Z,14.78
2023-05-18T09:22:27.077Z,14.79
2023-05-18T09:25:03.885Z,14.80
2023-05-18T09:27:37.725Z,14.81
2023-05-18T09:30:03.618Z,14.78
2023-05-18T09:32:41.525Z,14.79
2023-05-18T09:35:15.748Z,14.78
2023-05-18T09:37:45.176Z,14.74
2023-05-18T09:40:21.752Z,14.72
2023-05-18T09:42:57.044Z,14.72
2023-05-18T09:45:31.981Z,14.68
2023-05-18T09:48:06.818Z,14.67
2023-05-18T09:50:41.660Z,14.65
2023-05-18T09:53:11.740Z,14.61
2023-05-18T09:55:39.772Z,14.58
2023-05-18T09:58:13.725Z,14.55
2023-05-18T10:00:52.990Z,14.50
2023-05-18T10:03:28.349Z,14.47
2023-05-18T10:05:51.829Z,14.45
2023-05-18T10:08:25.240Z,14.40
2023-05-18T10:10:58.588Z,14.38
2023-05-18T10:13:35.621Z,14.35
2023-05-18T10:16:11.619Z,14.32
2023-05-18T10:18:45.924Z,14.30
2023-05-18T10:21:22.206Z,14.28
2023-05-18T10:23:57.642Z,14.28
2023-05-18T10:26:35.793Z,14.24
2023-05-18T10:29:11.325Z,14.22
2023-05-18T10:31:46.064Z,14.22
2023-05-18T10:34:24.296Z,14.20
2023-05-18T10:37:05.151Z,14.16
2023-05-18T10:39:41.841Z,14.15
2023-05-18T10:42:15.590Z,14.15
2023-05-18T10:44:39.353Z,14.14
2023-05-18T10:47:15.325Z,14.11
2023-05-18T10:49:51.039Z,14.10
2023-05-18T10:52:16.664Z,14.11
2023-05-18T10:54:51.962Z,14.12
2023-05-18T10:57:27.541Z,14.15
2023-05-18T11:00:02.224Z,14.16
2023-05-18T11:02:38.043Z,14.16
2023-05-18T11:05:19.411Z,14.15
2023-05-18T11:07:48.555Z,14.15
2023-05-18T11:10:22.229Z,14.12
2023-05-18T11:12:56.592Z,14.13
2023-05-18T11:16:27.143Z,14.13
2023-05-18T11:19:12.682Z,14.12
2023-05-18T11:21:59.640Z,14.07
2023-05-18T11:24:45.491Z,14.06
2023-05-18T11:27:21.580Z,14.07
2023-05-18T11:29:47.718Z,14.08
2023-05-18T11:32:33.382Z,14.07
2023-05-18T11:35:12.179Z,14.07
2023-05-18T11:37:58.808Z,14.08
2023-05-18T11:40:51.415Z,14.08
2023-05-18T11:43:30.981Z,14.10
2023-05-18T11:46:05.320Z,14.09
2023-05-18T11:48:47.816Z,14.08
2023-05-18T11:51:12.928Z,14.07
2023-05-18T11:53:38.931Z,14.05
2023-05-18T11:56:17.111Z,14.03
2023-05-18T11:58:51.092Z,14.00
2023-05-18T12:01:15.612Z,13.99
2023-05-18T12:03:50.005Z,14.00
2023-05-18T12:06:14.375Z,14.00
2023-05-18T12:08:48.589Z,14.00
2023-05-18T12:11:13.153Z,13.98
2023-05-18T12:13:35.406Z,13.99
2023-05-18T12:15:59.100Z,13.98
2023-05-18T12:18:37.523Z,13.96
2023-05-18T12:21:14.655Z,13.92
2023-05-18T12:23:49.107Z,13.90
2023-05-18T12:26:11.370Z,13.88
2023-05-18T12:28:35.278Z,13.86
2023-05-18T12:31:10.321Z,13.85
2023-05-18T12:33:46.397Z,13.84
2023-05-18T12:36:16.565Z,13.85
2023-05-18T12:38:55.390Z,13.85
2023-05-18T12:41:29.516Z,13.84
2023-05-18T12:44:03.618Z,13.84
2023-05-18T12:46:38.127Z,13.83
2023-05-18T12:49:11.832Z,13.80
2023-05-18T12:51:46.017Z,13.78
2023-05-18T12:54:30.899Z,13.78
2023-05-18T12:57:02.575Z,13.78
2023-05-18T12:59:36.226Z,13.78
2023-05-18T13:02:10.855Z,13.77
2023-05-18T13:04:43.796Z,13.78
2023-05-18T13:07:06.909Z,13.78
2023-05-18T13:09:28.990Z,13.79
2023-05-18T13:12:07.879Z,13.80
2023-05-18T13:14:44.773Z,13.81
2023-05-18T13:17:10.290Z,13.82
2023-05-18T13:19:38.206Z,13.80
2023-05-18T13:22:12.168Z,13.79
2023-05-18T13:24:43.937Z,13.79
2023-05-18T13:27:10.908Z,13.77
2023-05-18T13:29:38.628Z,13.74
2023-05-18T13:32:01.957Z,13.74
2023-05-18T13:34:29.628Z,13.74
2023-05-18T13:37:05.229Z,13.76
2023-05-18T13:39:39.442Z,13.80
2023-05-18T13:42:15.270Z,13.84
2023-05-18T13:44:38.131Z,13.88
2023-05-18T13:46:59.944Z,13.89
2023-05-18T13:49:26.275Z,13.92
2023-05-18T13:51:53.275Z,13.93
2023-05-18T13:54:16.516Z,13.90
2023-05-18T13:56:42.440Z,13.88
2023-05-18T13:59:17.422Z,13.85
2023-05-18T14:01:52.053Z,13.83
2023-05-18T14:04:30.265Z,13.82
2023-05-18T14:07:04.571Z,13.80
2023-05-18T14:09:32.171Z,13.79
2023-05-18T14:12:07.305Z,13.79
2023-05-18T14:14:42.290Z,13.78
2023-05-18T14:17:10.535Z,13.79
2023-05-18T14:19:46.589Z,13.79
2023-05-18T14:22:20.561Z,13.79
2023-05-18T14:24:55.597Z,13.80
2023-05-18T14:27:30.264Z,13.80
2023-05-18T14:29:53.170Z,13.79
2023-05-18T14:32:27.349Z,13.79
2023-05-18T14:35:01.909Z,13.80
2023-05-18T14:37:35.898Z,13.82
2023-05-18T14:40:03.376Z,13.81
2023-05-18T14:42:37.662Z,13.81
2023-05-18T14:45:13.728Z,13.82
2023-05-18T14:47:48.584Z,13.82
2023-05-18T14:50:22.823Z,13.84
2023-05-18T14:52:56.355Z,13.87
2023-05-18T14:55:19.219Z,13.88
2023-05-18T14:57:52.938Z,13.90
2023-05-18T15:00:18.768Z,13.91
2023-05-18T15:02:53.279Z,13.94
2023-05-18T15:05:27.449Z,13.96
2023-05-18T15:08:05.628Z,13.98
2023-05-18T15:10:40.317Z,13.97
2023-05-18T15:13:16.888Z,13.98
2023-05-18T15:15:39.761Z,13.98
2023-05-18T15:18:06.981Z,13.98
2023-05-18T15:20:28.080Z,13.97
2023-05-18T15:23:04.237Z,13.99
2023-05-18T15:25:37.463Z,13.98
2023-05-18T15:28:12.271Z,13.98
2023-05-18T15:30:45.628Z,13.98
2023-05-18T15:33:19.499Z,13.99
2023-05-18T15:35:53.282Z,14.00
2023-05-18T15:38:29.457Z,14.00
2023-05-18T15:40:52.264Z,14.01
2023-05-18T15:43:27.387Z,14.02
2023-05-18T15:46:02.192Z,14.03
2023-05-18T15:48:36.128Z,14.04
2023-05-18T15:50:58.852Z,14.05
2023-05-18T15:53:33.022Z,14.08
2023-05-18T15:56:07.392Z,14.11
2023-05-18T15:58:42.280Z,14.14
2023-05-18T16:01:10.540Z,14.15
2023-05-18T16:03:38.385Z,14.16
2023-05-18T16:06:12.872Z,14.18
2023-05-18T16:08:48.919Z,14.23
2023-05-18T16:11:12.118Z,14.26
2023-05-18T16:13:46.342Z,14.30
2023-05-18T16:16:20.840Z,14.31
2023-05-18T16:18:55.422Z,14.30
2023-05-18T16:21:29.871Z,14.29
2023-05-18T16:24:04.024Z,14.30
2023-05-18T16:26:40.176Z,14.29
2023-05-18T16:29:14.201Z,14.31
2023-05-18T16:31:49.928Z,14.29
2023-05-18T16:34:25.403Z,14.28
2023-05-18T16:36:59.780Z,14.27
2023-05-18T16:39:33.586Z,14.24
2023-05-18T16:42:08.869Z,14.23
2023-05-18T16:44:42.810Z,14.23
2023-05-18T16:47:16.721Z,14.22
2023-05-18T16:49:52.801Z,14.21
2023-05-18T16:52:19.520Z,14.22
2023-05-18T16:54:53.932Z,14.26
2023-05-18T16:57:28.975Z,14.26
2023-05-18T17:00:04.817Z,14.29
2023-05-18T17:02:39.450Z,14.31
2023-05-18T17:05:14.704Z,14.33
2023-05-18T17:07:43.347Z,14.37
2023-05-18T17:10:17.533Z,14.38
2023-05-18T17:12:50.959Z,14.40
2023-05-18T17:15:25.925Z,14.43
2023-05-18T17:18:00.838Z,14.47
2023-05-18T17:20:34.764Z,14.52
2023-05-18T17:23:08.618Z,14.53
2023-05-18T17:25:42.698Z,14.54
2023-05-18T17:28:17.596Z,14.55
2023-05-18T17:30:52.230Z,14.56
2023-05-18T17:33:19.872Z,14.59
2023-05-18T17:35:54.696Z,14.64
2023-05-18T17:38:29.202Z,14.63
2023-05-18T17:40:52.845Z,14.64
2023-05-18T17:43:26.712Z,14.67
2023-05-18T17:46:01.419Z,14.71
2023-05-18T17:48:34.902Z,14.68
2023-05-18T17:51:10.147Z,14.70
2023-05-18T17:53:44.380Z,14.72
2023-05-18T17:56:18.412Z,14.71
2023-05-18T17:58:52.560Z,14.72
2023-05-18T18:01:27.376Z,14.73
2023-05-18T18:04:01.768Z,14.73
2023-05-18T18:06:36.784Z,14.72
2023-05-18T18:09:11.593Z,14.74
2023-05-18T18:11:38.576Z,14.76
2023-05-18T18:14:00.966Z,14.79
2023-05-18T18:16:34.545Z,14.79
2023-05-18T18:19:04.014Z,14.78
2023-05-18T18:21:38.402Z,14.77
2023-05-18T18:24:05.796Z,14.78
2023-05-18T18:26:41.700Z,14.79
2023-05-18T18:29:15.918Z,14.82
2023-05-18T18:31:50.374Z,14.83
2023-05-18T18:34:25.043Z,14.84
2023-05-18T18:37:00.484Z,14.82
2023-05-18T18:39:28.102Z,14.84
2023-05-18T18:42:04.140Z,14.84
2023-05-18T18:44:38.421Z,14.84
2023-05-18T18:47:13.769Z,14.83
2023-05-18T18:49:48.879Z,14.89
2023-05-18T18:52:22.635Z,14.97
2023-05-18T18:54:59.549Z,15.09
2023-05-18T18:57:34.496Z,15.15
2023-05-18T19:00:12.202Z,15.18
2023-05-18T19:02:46.221Z,15.19
2023-05-18T19:05:23.848Z,15.28
2023-05-18T19:07:46.562Z,15.38
2023-05-18T19:10:20.586Z,15.48
2023-05-18T19:12:54.966Z,15.53
2023-05-18T19:15:28.481Z,15.66
2023-05-18T19:18:04.164Z,15.77
2023-05-18T19:20:38.549Z,15.80
2023-05-18T19:23:01.420Z,15.84
2023-05-18T19:25:31.092Z,15.93
2023-05-18T19:27:54.140Z,15.95
2023-05-18T19:30:29.112Z,16.00
2023-05-18T19:33:02.940Z,16.12
2023-05-18T19:35:26.680Z,16.21
2023-05-18T19:38:03.161Z,16.25
2023-05-18T19:40:37.209Z,16.29
2023-05-18T19:43:10.854Z,16.32
2023-05-18T19:45:45.501Z,16.33
2023-05-18T19:48:20.397Z,16.31
2023-05-18T19:50:54.677Z,16.33
2023-05-18T19:53:15.785Z,16.36
2023-05-18T19:55:50.684Z,16.41
2023-05-18T19:58:24.323Z,16.47
2023-05-18T20:00:58.601Z,16.51
2023-05-18T20:03:33.525Z,16.55
2023-05-18T20:06:07.599Z,16.54
2023-05-18T20:08:42.158Z,16.53
2023-05-18T20:11:08.827Z,16.56
2023-05-18T20:13:45.009Z,16.60
2023-05-18T20:16:19.725Z,16.66
2023-05-18T20:18:43.386Z,16.66
2023-05-18T20:21:19.657Z,16.66
2023-05-18T20:23:53.748Z,16.78
2023-05-18T20:26:19.604Z,16.87
2023-05-18T20:28:54.291Z,16.83
2023-05-18T20:31:28.608Z,16.86
2023-05-18T20:34:02.834Z,16.99
2023-05-18T20:36:38.856Z,17.23
2023-05-18T20:39:01.816Z,17.39
2023-05-18T20:41:35.690Z,17.50
2023-05-18T20:44:03.073Z,17.63
2023-05-18T20:46:36.771Z,17.70
2023-05-18T20:49:13.296Z,17.74
2023-05-18T20:51:47.367Z,17.79
2023-05-18T20:54:23.318Z,17.80
2023-05-18T20:56:57.895Z,17.73
2023-05-18T20:59:31.887Z,17.76
2023-05-18T21:01:57.572Z,17.65
2023-05-18T21:04:31.895Z,17.59
2023-05-18T21:07:06.727Z,17.62
2023-05-18T21:09:40.597Z,17.62
2023-05-18T21:12:16.246Z,17.63
2023-05-18T21:14:50.589Z,17.57
2023-05-18T21:17:25.284Z,17.50
2023-05-18T21:19:58.869Z,17.47
2023-05-18T21:22:26.570Z,17.50
2023-05-18T21:25:00.269Z,17.53
2023-05-18T21:27:22.013Z,17.58
2023-05-18T21:29:43.414Z,17.61
2023-05-18T21:32:17.647Z,17.64
2023-05-18T21:34:42.004Z,17.63
2023-05-18T21:37:06.094Z,17.58
2023-05-18T21:39:41.226Z,17.49
2023-05-18T21:42:08.083Z,17.38
2023-05-18T21:44:42.351Z,17.33
2023-05-18T21:47:05.643Z,17.35
2023-05-18T21:49:34.893Z,17.36
2023-05-18T21:52:08.643Z,17.33
2023-05-18T21:54:42.980Z,17.33
2023-05-18T21:57:17.326Z,17.32
2023-05-18T21:59:50.662Z,17.24
2023-05-18T22:02:24.874Z,17.28
2023-05-18T22:04:51.374Z,17.27
2023-05-18T22:07:26.224Z,17.25
2023-05-18T22:10:00.647Z,17.15
2023-05-18T22:12:34.389Z,17.03
2023-05-18T22:15:09.836Z,16.92
2023-05-18T22:17:43.827Z,16.95
2023-05-18T22:20:18.330Z,16.96
2023-05-18T22:22:52.632Z,16.94
2023-05-18T22:25:27.828Z,16.97
2023-05-18T22:28:01.839Z,17.11
2023-05-18T22:30:36.440Z,17.25
2023-05-18T22:33:10.246Z,17.33
2023-05-18T22:35:44.090Z,17.37
2023-05-18T22:38:18.867Z,17.38
2023-05-18T22:40:55.187Z,17.40
2023-05-18T22:43:30.199Z,17.43
2023-05-18T22:46:03.591Z,17.42
2023-05-18T22:48:37.736Z,17.32
2023-05-18T22:51:11.313Z,17.21
2023-05-18T22:53:46.025Z,17.01
2023-05-18T22:56:23.438Z,16.85
2023-05-18T22:58:57.055Z,16.84
2023-05-18T23:01:32.694Z,16.85
2023-05-18T23:04:07.516Z,16.86
2023-05-18T23:06:42.331Z,16.83
2023-05-18T23:08:56.348Z,16.72
2023-05-18T23:11:32.517Z,16.59
2023-05-18T23:14:03.598Z,16.51
2023-05-18T23:16:37.487Z,16.52
2023-05-18T23:19:13.247Z,16.56
2023-05-18T23:21:47.049Z,16.53
2023-05-18T23:24:20.897Z,16.45
2023-05-18T23:26:55.755Z,16.39
2023-05-18T23:29:18.619Z,16.37
2023-05-18T23:31:54.339Z,16.33
2023-05-18T23:34:29.882Z,16.28
2023-05-18T23:36:56.062Z,16.24
2023-05-18T23:39:32.431Z,16.23
2023-05-18T23:42:12.594Z,16.21
2023-05-18T23:44:48.554Z,16.18
2023-05-18T23:47:27.532Z,16.11
2023-05-18T23:49:56.112Z,16.09
2023-05-18T23:52:35.921Z,16.11
2023-05-18T23:55:14.314Z,16.10
2023-05-18T23:57:50.760Z,16.07
